Time;durP1;ratioP1;P1;durP2;ratioP2;P2;SDS_P1;SDS_P2;PMS_P1;PMS_P2;Temp;Humidity;BMP_temperature;BMP_pressure;BME280_temperature;BME280_humidity;BME280_pressure;Samples;Min_cycle;Max_cycle;Signal;HPM_P1;HPM_P2
2021/08/10 00:00:53;;;;;;;8.68;6.88;;;;;;;26.78;36.04;99551.81;5132637;27;20023;-73
2021/08/10 00:03:18;;;;;;;10.13;6.55;;;;;;;26.62;36.84;99548.91;5127069;27;20031;-73
2021/08/10 00:05:47;;;;;;;14.07;7.45;;;;;;;26.59;36.96;99553.47;5123210;27;20019;-74
2021/08/10 00:08:17;;;;;;;9.97;6.90;;;;;;;26.59;36.87;99546.94;5129521;27;20069;-72
2021/08/10 00:10:44;;;;;;;10.35;6.55;;;;;;;26.56;37.17;99554.38;5121995;27;20020;-71
2021/08/10 00:13:14;;;;;;;9.13;6.72;;;;;;;26.65;36.64;99547.22;5116342;27;20649;-74
2021/08/10 00:15:40;;;;;;;9.70;7.13;;;;;;;26.49;37.12;99546.72;5125034;27;20077;-74
2021/08/10 00:18:06;;;;;;;15.43;7.28;;;;;;;26.51;37.03;99554.09;5127161;27;20446;-74
2021/08/10 00:20:33;;;;;;;9.52;6.80;;;;;;;26.36;37.77;99557.25;5117438;27;20053;-72
2021/08/10 00:22:59;;;;;;;11.05;6.65;;;;;;;26.27;38.14;99555.00;5120758;27;20046;-71
2021/08/10 00:25:25;;;;;;;14.85;7.78;;;;;;;26.38;38.74;99565.44;5118533;27;20028;-75
2021/08/10 00:27:51;;;;;;;11.50;6.55;;;;;;;26.23;38.73;99559.97;5118718;27;20038;-74
2021/08/10 00:30:17;;;;;;;13.10;6.75;;;;;;;26.12;39.40;99557.31;5113432;27;20024;-71
2021/08/10 00:32:42;;;;;;;12.73;7.32;;;;;;;26.11;39.66;99549.97;5122295;27;20019;-72
2021/08/10 00:35:08;;;;;;;9.75;7.20;;;;;;;26.18;39.55;99551.88;5126608;27;20026;-74
2021/08/10 00:37:33;;;;;;;10.07;7.15;;;;;;;26.43;38.97;99548.53;5127013;27;20055;-71
2021/08/10 00:39:59;;;;;;;19.77;8.23;;;;;;;26.41;39.12;99545.25;5108064;28;20031;-71
2021/08/10 00:42:24;;;;;;;15.95;7.72;;;;;;;26.28;39.10;99541.47;5114289;28;20040;-71
2021/08/10 00:44:50;;;;;;;10.40;7.63;;;;;;;26.20;39.49;99538.75;5114393;27;20086;-71
2021/08/10 00:47:15;;;;;;;11.32;7.40;;;;;;;26.40;38.58;99535.03;5112319;27;20477;-73
2021/08/10 00:49:41;;;;;;;15.63;7.10;;;;;;;26.14;39.45;99529.00;5112817;27;20043;-73
2021/08/10 00:52:07;;;;;;;13.68;7.47;;;;;;;25.93;39.78;99521.69;5111999;28;20111;-71
2021/08/10 00:54:33;;;;;;;14.32;7.45;;;;;;;25.62;40.72;99542.72;5104939;28;20116;-71
2021/08/10 00:56:58;;;;;;;13.02;7.38;;;;;;;25.61;41.23;99543.13;5109868;28;20043;-71
2021/08/10 00:59:24;;;;;;;11.60;7.13;;;;;;;25.82;40.36;99539.06;5117495;27;20165;-71
2021/08/10 01:01:50;;;;;;;18.40;7.28;;;;;;;25.53;40.81;99539.59;5112183;28;20031;-73
2021/08/10 01:04:16;;;;;;;9.40;7.25;;;;;;;25.93;39.68;99536.00;5113558;28;20043;-74
2021/08/10 01:07:18;;;;;;;12.90;7.65;;;;;;;25.69;40.01;99543.81;5108482;28;20020;-72
2021/08/10 01:09:58;;;;;;;13.32;7.20;;;;;;;25.67;39.64;99541.41;5112079;28;20043;-71
2021/08/10 01:12:47;;;;;;;12.35;7.43;;;;;;;25.72;39.68;99548.69;5112688;27;20034;-71
2021/08/10 01:15:18;;;;;;;11.40;7.55;;;;;;;25.63;39.91;99546.38;5098372;28;20044;-71
2021/08/10 01:17:53;;;;;;;15.88;7.30;;;;;;;25.79;39.40;99540.75;5106733;28;20085;-71
2021/08/10 01:20:50;;;;;;;14.30;7.80;;;;;;;25.75;39.69;99542.06;5113209;28;20035;-73
2021/08/10 01:23:21;;;;;;;14.60;7.55;;;;;;;25.73;39.98;99538.84;5111534;28;20118;-73
2021/08/10 01:26:43;;;;;;;13.70;7.28;;;;;;;25.71;40.38;99547.06;5109329;27;20031;-74
2021/08/10 01:29:17;;;;;;;13.57;7.13;;;;;;;25.64;40.75;99560.25;5059712;28;20055;-71
2021/08/10 01:31:44;;;;;;;8.32;7.35;;;;;;;25.88;40.03;99557.38;5069670;28;20498;-71
2021/08/10 01:34:21;;;;;;;11.07;7.32;;;;;;;25.74;40.40;99551.91;5083226;28;20081;-71
2021/08/10 01:36:48;;;;;;;11.23;7.75;;;;;;;25.81;39.75;99543.16;5111169;28;20039;-73
2021/08/10 01:39:15;;;;;;;15.57;7.70;;;;;;;25.50;40.94;99549.88;5113015;28;20046;-73
2021/08/10 01:41:42;;;;;;;8.73;7.72;;;;;;;25.61;40.77;99549.69;5145554;27;20035;-74
2021/08/10 01:44:08;;;;;;;10.93;7.38;;;;;;;25.54;41.13;99549.00;5100188;27;20023;-73
2021/08/10 01:46:35;;;;;;;8.60;7.60;;;;;;;25.58;41.46;99541.97;5112735;28;20473;-73
2021/08/10 01:49:01;;;;;;;10.00;8.15;;;;;;;25.49;41.37;99536.00;5112384;28;20492;-71
2021/08/10 01:51:28;;;;;;;14.90;7.32;;;;;;;25.27;42.05;99542.06;5106715;28;20097;-71
2021/08/10 01:53:58;;;;;;;12.50;7.32;;;;;;;25.12;42.73;99547.22;5117517;27;20085;-71
2021/08/10 01:56:25;;;;;;;12.73;8.07;;;;;;;25.01;42.98;99540.84;5112715;28;20049;-72
2021/08/10 01:58:52;;;;;;;13.48;8.00;;;;;;;25.04;43.15;99545.69;5112596;28;20023;-73
2021/08/10 02:01:19;;;;;;;10.32;7.60;;;;;;;25.11;43.05;99554.19;5108197;27;20045;-73
2021/08/10 02:03:45;;;;;;;15.15;7.63;;;;;;;25.32;42.16;99555.88;5150367;27;20084;-71
2021/08/10 02:06:15;;;;;;;10.35;7.97;;;;;;;25.21;42.71;99550.34;5113533;27;20556;-71
2021/08/10 02:08:41;;;;;;;13.43;8.10;;;;;;;25.14;43.08;99555.38;5112075;28;20031;-74
2021/08/10 02:11:08;;;;;;;15.82;7.63;;;;;;;24.86;43.72;99552.53;5102005;28;20093;-73
2021/08/10 02:13:34;;;;;;;14.95;8.07;;;;;;;24.71;43.91;99559.66;5112144;28;20039;-73
2021/08/10 02:16:00;;;;;;;13.57;8.18;;;;;;;24.58;44.41;99560.25;5111598;28;20028;-71
2021/08/10 02:18:26;;;;;;;15.95;7.95;;;;;;;24.81;43.80;99556.66;5141652;27;20493;-74
2021/08/10 02:20:54;;;;;;;26.98;9.55;;;;;;;24.87;43.35;99559.84;5110428;28;20109;-72
2021/08/10 02:23:23;;;;;;;20.48;8.18;;;;;;;24.70;44.10;99560.91;5110558;28;20440;-71
2021/08/10 02:25:50;;;;;;;13.65;8.65;;;;;;;24.65;44.64;99573.63;5112033;28;20035;-74
2021/08/10 02:28:17;;;;;;;15.85;8.25;;;;;;;24.83;43.05;99569.72;5106654;28;20442;-71
2021/08/10 02:30:50;;;;;;;9.30;8.27;;;;;;;24.59;44.37;99570.44;5110465;28;20028;-74
2021/08/10 02:33:17;;;;;;;9.48;7.47;;;;;;;24.41;44.51;99567.81;5112240;28;20050;-71
2021/08/10 02:35:43;;;;;;;10.02;7.47;;;;;;;24.61;44.25;99567.13;5112146;28;20098;-73
2021/08/10 02:38:11;;;;;;;12.00;7.90;;;;;;;24.45;44.52;99562.88;5101582;28;20055;-71
2021/08/10 02:40:37;;;;;;;12.23;8.35;;;;;;;24.34;45.01;99557.28;5111701;28;20484;-72
2021/08/10 02:43:04;;;;;;;12.45;8.52;;;;;;;24.44;44.51;99560.44;5113677;27;20027;-71
2021/08/10 02:45:34;;;;;;;13.35;8.25;;;;;;;24.23;44.30;99568.84;5110149;28;20034;-72
2021/08/10 02:47:59;;;;;;;10.35;8.10;;;;;;;24.41;44.02;99562.13;5107948;28;20547;-71
2021/08/10 02:50:27;;;;;;;19.95;8.30;;;;;;;24.49;44.12;99568.53;5110053;28;20110;-73
2021/08/10 02:52:52;;;;;;;21.98;8.02;;;;;;;24.65;42.90;99568.72;5111529;28;20027;-74
2021/08/10 02:55:21;;;;;;;20.90;7.95;;;;;;;24.33;43.84;99569.97;5106195;28;20024;-73
2021/08/10 02:58:08;;;;;;;23.30;9.05;;;;;;;24.19;44.13;99573.81;5104317;28;20027;-73
2021/08/10 03:00:47;;;;;;;11.80;7.82;;;;;;;23.87;44.53;99577.78;5108324;28;20024;-71
2021/08/10 03:03:17;;;;;;;13.13;8.25;;;;;;;23.74;45.12;99583.25;5109970;28;20409;-71
2021/08/10 03:05:45;;;;;;;14.15;8.68;;;;;;;23.85;44.87;99580.25;5096947;28;20107;-71
2021/08/10 03:08:20;;;;;;;16.88;7.85;;;;;;;24.20;43.78;99586.06;5109448;28;20063;-73
2021/08/10 03:10:49;;;;;;;10.82;8.55;;;;;;;23.92;44.67;99590.81;5111197;28;20035;-71
2021/08/10 03:13:16;;;;;;;13.60;9.25;;;;;;;24.19;43.61;99590.13;5106611;28;20108;-71
2021/08/10 03:15:44;;;;;;;13.43;7.95;;;;;;;24.06;44.18;99598.44;5122539;27;20038;-71
2021/08/10 03:18:13;;;;;;;9.82;7.60;;;;;;;23.86;44.56;99596.16;5110702;28;20028;-71
2021/08/10 03:20:42;;;;;;;16.88;8.40;;;;;;;23.98;44.07;99589.91;5111015;28;20024;-71
2021/08/10 03:23:11;;;;;;;9.55;8.45;;;;;;;23.91;44.26;99584.28;5108906;28;20505;-73
2021/08/10 03:25:38;;;;;;;23.20;9.20;;;;;;;23.82;44.49;99589.69;5109641;28;20527;-71
2021/08/10 03:28:04;;;;;;;11.80;8.57;;;;;;;23.85;44.42;99585.97;5110919;28;20024;-73
2021/08/10 03:30:30;;;;;;;14.88;8.15;;;;;;;23.70;44.57;99593.88;5110791;28;20107;-72
2021/08/10 03:32:56;;;;;;;16.00;10.32;;;;;;;23.48;45.30;99599.78;5130723;27;20028;-73
2021/08/10 03:35:22;;;;;;;17.60;8.90;;;;;;;23.49;45.20;99603.44;5118351;27;20061;-72
2021/08/10 03:37:49;;;;;;;15.45;8.32;;;;;;;23.24;45.79;99602.41;5115279;27;20051;-73
2021/08/10 03:40:15;;;;;;;10.85;8.15;;;;;;;23.37;45.33;99596.22;5108833;28;20058;-74
2021/08/10 03:42:41;;;;;;;11.30;7.63;;;;;;;23.34;45.76;99597.84;5119759;28;20059;-73
2021/08/10 03:45:07;;;;;;;15.23;9.02;;;;;;;23.24;45.91;99595.88;5120701;28;20565;-73
2021/08/10 03:47:33;;;;;;;13.32;8.55;;;;;;;23.31;45.61;99597.88;5110889;28;20043;-73
2021/08/10 03:50:00;;;;;;;18.70;8.32;;;;;;;23.47;45.45;99600.22;5104222;28;20559;-71
2021/08/10 03:52:26;;;;;;;16.38;9.80;;;;;;;23.45;45.42;99608.38;5108988;28;20085;-73
2021/08/10 03:54:51;;;;;;;14.45;8.70;;;;;;;23.78;44.56;99614.63;5110526;28;20118;-71
2021/08/10 03:57:19;;;;;;;25.40;9.80;;;;;;;23.82;44.40;99607.63;5143638;27;20446;-74
2021/08/10 03:59:47;;;;;;;16.55;8.95;;;;;;;23.65;44.86;99609.44;5101765;28;20055;-71
2021/08/10 04:02:17;;;;;;;14.68;8.48;;;;;;;23.49;45.36;99609.16;5112726;28;20856;-73
2021/08/10 04:04:45;;;;;;;18.50;8.25;;;;;;;23.81;44.70;99606.00;5110421;28;20031;-73
2021/08/10 04:07:12;;;;;;;19.27;8.50;;;;;;;23.80;44.88;99604.38;5106378;28;20032;-74
2021/08/10 04:09:38;;;;;;;17.90;8.52;;;;;;;23.88;44.29;99599.41;5104773;28;20031;-72
2021/08/10 04:12:09;;;;;;;25.27;8.82;;;;;;;23.94;44.49;99600.56;5110252;28;20104;-71
2021/08/10 04:14:35;;;;;;;27.45;9.60;;;;;;;23.80;45.11;99603.59;5110163;28;20092;-73
2021/08/10 04:17:07;;;;;;;36.38;9.98;;;;;;;23.91;45.58;99601.44;5103353;28;20477;-72
2021/08/10 04:19:35;;;;;;;19.45;8.60;;;;;;;24.15;44.45;99601.63;5135082;27;20504;-77
2021/08/10 04:22:02;;;;;;;34.60;12.05;;;;;;;24.23;43.80;99608.84;5110406;28;20047;-76
2021/08/10 04:24:28;;;;;;;44.40;13.05;;;;;;;24.39;43.54;99610.31;5110016;28;20027;-76
2021/08/10 04:26:54;;;;;;;54.92;21.83;;;;;;;24.42;43.56;99608.63;5098051;28;20401;-74
2021/08/10 04:29:19;;;;;;;59.50;24.63;;;;;;;24.42;43.74;99603.75;5122621;28;20032;-74
2021/08/10 04:31:45;;;;;;;35.20;15.13;;;;;;;24.51;43.29;99606.91;5143471;27;20598;-74
2021/08/10 04:34:11;;;;;;;32.65;12.15;;;;;;;24.63;43.30;99602.66;5116435;28;20030;-72
2021/08/10 04:36:37;;;;;;;36.28;13.07;;;;;;;24.65;43.90;99605.09;5104981;28;20035;-74
2021/08/10 04:39:03;;;;;;;38.10;12.82;;;;;;;24.55;44.31;99606.81;5109031;28;20024;-75
2021/08/10 04:41:28;;;;;;;36.60;9.80;;;;;;;24.52;44.91;99614.22;5109748;28;20088;-74
2021/08/10 04:43:54;;;;;;;26.60;10.75;;;;;;;24.66;44.68;99607.50;5114967;28;20031;-84
2021/08/10 04:46:22;;;;;;;127.70;35.65;;;;;;;24.77;43.27;99621.69;5122181;28;20039;-76
2021/08/10 04:48:48;;;;;;;151.55;66.45;;;;;;;24.75;42.80;99612.72;5112351;28;20412;-78
2021/08/10 04:51:14;;;;;;;152.85;67.35;;;;;;;24.94;42.45;99610.44;5110739;28;20114;-76
2021/08/10 04:53:40;;;;;;;138.73;59.90;;;;;;;25.09;42.38;99606.09;5104916;28;20123;-82
2021/08/10 04:56:05;;;;;;;125.15;59.72;;;;;;;25.13;41.91;99616.72;5105086;28;20102;-69
2021/08/10 04:58:31;;;;;;;83.20;36.60;;;;;;;25.14;41.75;99618.31;5111295;28;20027;-69
2021/08/10 05:00:57;;;;;;;50.47;23.70;;;;;;;25.06;42.06;99627.00;5110810;28;20566;-69
2021/08/10 05:03:22;;;;;;;24.73;12.68;;;;;;;25.06;42.87;99623.34;5105829;28;20382;-69
2021/08/10 05:05:51;;;;;;;31.75;11.35;;;;;;;25.04;43.33;99626.63;5109574;28;20019;-69
2021/08/10 05:08:16;;;;;;;24.27;8.85;;;;;;;24.97;44.29;99632.44;5110818;28;20031;-69
2021/08/10 05:10:42;;;;;;;14.30;8.48;;;;;;;25.07;43.34;99630.69;5112484;28;20572;-70
2021/08/10 05:13:08;;;;;;;14.77;9.35;;;;;;;25.14;43.59;99630.56;5128865;27;20082;-69
2021/08/10 05:15:35;;;;;;;15.27;8.43;;;;;;;25.06;44.25;99627.00;5112890;28;20023;-69
2021/08/10 05:18:00;;;;;;;17.77;9.07;;;;;;;24.86;44.81;99623.19;5113911;28;20032;-69
2021/08/10 05:20:26;;;;;;;12.50;8.85;;;;;;;24.73;45.25;99617.22;5110345;28;20024;-69
2021/08/10 05:22:51;;;;;;;9.98;8.98;;;;;;;25.02;44.88;99620.53;5102404;28;20039;-69
2021/08/10 05:25:17;;;;;;;13.85;8.45;;;;;;;25.08;44.74;99620.84;5113280;28;20031;-69
2021/08/10 05:27:42;;;;;;;14.20;9.10;;;;;;;24.76;45.42;99622.09;5107921;28;20131;-69
2021/08/10 05:30:08;;;;;;;15.93;9.27;;;;;;;24.88;45.25;99629.31;5109149;27;20027;-70
2021/08/10 05:32:34;;;;;;;48.33;10.80;;;;;;;25.04;44.71;99628.66;5110382;28;20063;-70
2021/08/10 05:34:59;;;;;;;25.48;9.68;;;;;;;25.00;44.76;99623.03;5110900;28;20054;-70
2021/08/10 05:37:25;;;;;;;25.35;10.43;;;;;;;25.08;44.61;99620.84;5109169;28;20047;-70
2021/08/10 05:39:50;;;;;;;30.15;9.75;;;;;;;25.11;44.15;99620.00;5098200;28;20031;-69
2021/08/10 05:42:16;;;;;;;30.48;10.63;;;;;;;25.00;44.44;99631.59;5109512;28;20028;-69
2021/08/10 05:44:41;;;;;;;13.18;9.30;;;;;;;25.21;43.75;99639.06;5110475;28;20024;-71
2021/08/10 05:47:07;;;;;;;18.05;9.82;;;;;;;25.30;42.74;99638.50;5143708;27;20028;-71
2021/08/10 05:49:32;;;;;;;12.18;8.75;;;;;;;25.27;43.20;99632.81;5096483;28;20525;-70
2021/08/10 05:51:58;;;;;;;21.13;9.00;;;;;;;25.44;43.40;99625.19;5113195;27;20078;-70
2021/08/10 05:54:23;;;;;;;15.52;9.00;;;;;;;25.57;43.05;99634.81;5115203;27;20027;-70
2021/08/10 05:56:48;;;;;;;12.98;7.63;;;;;;;25.79;42.27;99634.47;5108897;28;20623;-70
2021/08/10 05:59:15;;;;;;;10.82;7.30;;;;;;;25.93;41.67;99633.41;5108414;28;20409;-72
2021/08/10 06:01:41;;;;;;;11.43;7.68;;;;;;;25.90;41.79;99631.41;5112201;28;20028;-70
2021/08/10 06:04:06;;;;;;;19.13;8.27;;;;;;;25.98;41.69;99630.03;5111259;28;20027;-72
2021/08/10 06:06:34;;;;;;;13.10;8.18;;;;;;;26.05;41.78;99634.81;5105123;28;20062;-70
2021/08/10 06:09:04;;;;;;;20.80;9.20;;;;;;;26.17;41.48;99637.03;5105513;28;20526;-72
2021/08/10 06:11:29;;;;;;;12.57;7.10;;;;;;;26.31;41.53;99640.94;5107098;28;20508;-70
2021/08/10 06:13:55;;;;;;;13.32;7.70;;;;;;;26.44;40.06;99639.00;5145188;27;20059;-71
2021/08/10 06:16:21;;;;;;;16.67;8.50;;;;;;;26.54;40.15;99642.06;5100315;28;20500;-72
2021/08/10 06:18:46;;;;;;;10.52;7.75;;;;;;;26.60;40.70;99643.19;5110605;27;20446;-71
2021/08/10 06:21:12;;;;;;;14.63;7.78;;;;;;;26.75;40.01;99638.75;5110191;28;20016;-71
2021/08/10 06:23:38;;;;;;;10.23;7.30;;;;;;;26.91;39.15;99640.13;5110695;28;20031;-71
2021/08/10 06:26:04;;;;;;;9.55;7.07;;;;;;;26.96;38.60;99645.31;5106053;28;20028;-71
2021/08/10 06:28:29;;;;;;;20.48;7.68;;;;;;;27.02;38.59;99637.00;5110009;28;20031;-70
2021/08/10 06:30:55;;;;;;;12.00;7.68;;;;;;;27.08;37.77;99640.16;5111519;28;20409;-72
2021/08/10 06:33:20;;;;;;;10.85;7.30;;;;;;;27.19;37.68;99634.97;5106904;28;20038;-71
2021/08/10 06:35:45;;;;;;;12.82;7.00;;;;;;;27.30;38.27;99638.38;5106221;28;20027;-71
2021/08/10 06:38:11;;;;;;;8.90;6.85;;;;;;;27.45;37.57;99638.03;5110954;28;20044;-71
2021/08/10 06:40:36;;;;;;;10.23;6.53;;;;;;;27.50;36.95;99634.63;5111350;28;20016;-71
2021/08/10 06:43:02;;;;;;;12.38;6.95;;;;;;;27.65;37.20;99640.84;5105908;28;20092;-70
2021/08/10 06:45:27;;;;;;;13.90;6.65;;;;;;;27.67;37.11;99637.53;5106217;28;20092;-70
2021/08/10 06:47:53;;;;;;;9.50;7.00;;;;;;;27.72;36.91;99636.97;5111456;28;20035;-71
2021/08/10 06:50:19;;;;;;;12.40;6.97;;;;;;;27.85;36.84;99634.19;5111344;28;20031;-72
2021/08/10 06:52:46;;;;;;;8.10;7.22;;;;;;;27.95;36.00;99626.53;5105123;28;20039;-73
2021/08/10 06:55:12;;;;;;;8.23;5.80;;;;;;;27.99;36.63;99630.13;5111335;28;20504;-72
2021/08/10 06:57:38;;;;;;;11.68;6.40;;;;;;;28.12;36.46;99631.00;5109028;28;20032;-76
2021/08/10 07:00:06;;;;;;;8.15;5.93;;;;;;;28.20;36.03;99622.19;5111112;28;20153;-73
2021/08/10 07:02:32;;;;;;;11.38;7.32;;;;;;;28.19;35.60;99620.59;5107273;28;20035;-72
2021/08/10 07:04:57;;;;;;;14.40;7.72;;;;;;;28.26;36.13;99623.28;5110991;28;20031;-73
2021/08/10 07:07:23;;;;;;;11.57;6.43;;;;;;;28.38;35.88;99619.63;5110818;28;20076;-71
2021/08/10 07:09:48;;;;;;;8.63;6.93;;;;;;;28.48;35.96;99622.63;5108444;28;20481;-70
2021/08/10 07:12:14;;;;;;;17.23;7.15;;;;;;;28.58;35.47;99612.88;5102063;28;20058;-70
2021/08/10 07:14:39;;;;;;;14.73;7.78;;;;;;;28.61;35.08;99597.59;5102965;28;20036;-73
2021/08/10 07:17:05;;;;;;;13.90;8.43;;;;;;;28.72;35.05;99591.50;5136462;27;20031;-75
2021/08/10 07:19:30;;;;;;;9.73;6.97;;;;;;;28.89;34.79;99598.00;5102207;28;20505;-72
2021/08/10 07:21:56;;;;;;;16.60;6.80;;;;;;;28.95;34.55;99599.03;5110743;28;20027;-73
2021/08/10 07:24:21;;;;;;;16.92;7.97;;;;;;;29.10;35.28;99589.97;5109719;28;20027;-71
2021/08/10 07:26:48;;;;;;;15.48;7.10;;;;;;;29.12;35.33;99593.19;5110717;28;20035;-74
2021/08/10 07:29:14;;;;;;;16.65;7.18;;;;;;;29.23;34.98;99595.72;5118004;27;20039;-74
2021/08/10 07:31:40;;;;;;;10.48;6.40;;;;;;;29.41;34.25;99592.22;5109548;28;20109;-73
2021/08/10 07:34:05;;;;;;;16.80;6.35;;;;;;;29.59;35.26;99588.78;5110711;28;20019;-73
2021/08/10 07:36:31;;;;;;;12.13;6.07;;;;;;;29.66;34.02;99594.31;5110171;28;20043;-70
2021/08/10 07:38:56;;;;;;;9.40;6.43;;;;;;;29.84;34.19;99587.09;5107695;28;20035;-72
2021/08/10 07:41:23;;;;;;;22.77;8.13;;;;;;;29.86;33.83;99573.00;5110202;28;20440;-74
2021/08/10 07:43:48;;;;;;;10.85;6.22;;;;;;;29.85;33.92;99577.16;5110593;28;20019;-77
2021/08/10 07:46:14;;;;;;;12.85;6.88;;;;;;;30.04;32.90;99578.16;5105880;28;20181;-71
2021/08/10 07:48:40;;;;;;;16.13;7.15;;;;;;;30.21;32.68;99575.09;5098669;28;20118;-73
2021/08/10 07:51:05;;;;;;;14.60;8.13;;;;;;;30.32;32.09;99572.63;5108615;28;20173;-71
2021/08/10 07:53:30;;;;;;;15.80;7.90;;;;;;;30.34;33.11;99572.94;5108707;28;20020;-75
2021/08/10 07:55:56;;;;;;;12.35;8.05;;;;;;;30.42;33.16;99570.59;5134824;27;20045;-77
2021/08/10 07:58:21;;;;;;;10.00;5.85;;;;;;;30.64;30.87;99564.03;5107288;28;20032;-72
2021/08/10 08:00:47;;;;;;;14.77;6.00;;;;;;;30.88;31.26;99560.63;5100731;28;20412;-73
2021/08/10 08:03:12;;;;;;;9.40;7.25;;;;;;;30.94;30.33;99561.59;5108978;28;20028;-74
2021/08/10 08:05:38;;;;;;;9.82;6.25;;;;;;;30.99;30.76;99557.28;5102015;28;20028;-75
2021/08/10 08:08:04;;;;;;;8.43;6.13;;;;;;;31.28;30.95;99556.16;5103630;28;20101;-74
2021/08/10 08:10:30;;;;;;;16.35;6.70;;;;;;;31.45;29.51;99548.00;5143518;27;20027;-75
2021/08/10 08:12:55;;;;;;;21.92;6.07;;;;;;;31.43;30.17;99544.75;5110763;28;20047;-75
2021/08/10 08:15:21;;;;;;;15.40;6.65;;;;;;;31.42;30.71;99543.97;5106126;28;20036;-73
2021/08/10 08:17:47;;;;;;;8.25;6.10;;;;;;;31.61;29.47;99541.91;5110590;28;20035;-72
2021/08/10 08:20:13;;;;;;;10.43;6.28;;;;;;;31.74;28.08;99538.88;5110248;28;20020;-72
2021/08/10 08:22:38;;;;;;;18.15;5.95;;;;;;;31.84;28.85;99544.69;5126514;27;20646;-72
2021/08/10 08:25:05;;;;;;;11.95;6.30;;;;;;;31.90;29.00;99539.88;5114238;28;20035;-72
2021/08/10 08:27:30;;;;;;;20.17;6.70;;;;;;;32.02;28.78;99538.91;5114267;28;20023;-73
2021/08/10 08:29:56;;;;;;;19.48;7.00;;;;;;;32.08;28.60;99542.75;5112971;28;20100;-78
2021/08/10 08:32:21;;;;;;;13.05;7.13;;;;;;;32.27;28.60;99536.13;5109037;28;20417;-77
2021/08/10 08:34:47;;;;;;;15.00;7.07;;;;;;;32.26;28.71;99541.13;5113269;28;20032;-71
2021/08/10 08:37:13;;;;;;;19.85;7.10;;;;;;;32.30;29.50;99526.50;5113939;28;20039;-74
2021/08/10 08:39:38;;;;;;;27.40;6.95;;;;;;;32.52;27.80;99529.19;5106410;28;20043;-72
2021/08/10 08:42:04;;;;;;;18.10;6.55;;;;;;;32.58;27.84;99521.47;5106094;28;20027;-77
2021/08/10 08:44:37;;;;;;;22.80;7.45;;;;;;;32.68;27.59;99515.63;5113894;28;20480;-74
2021/08/10 08:47:04;;;;;;;17.98;8.82;;;;;;;32.78;27.71;99508.50;5113732;28;20027;-75
2021/08/10 08:49:31;;;;;;;16.25;6.45;;;;;;;32.77;26.56;99506.91;5112795;28;20028;-75
2021/08/10 08:52:00;;;;;;;45.90;23.05;;;;;;;32.81;27.22;99504.63;5109098;28;20417;-72
2021/08/10 08:54:26;;;;;;;15.73;7.33;;;;;;;32.87;27.84;99499.78;5112717;28;20020;-73
2021/08/10 08:56:52;;;;;;;17.13;7.40;;;;;;;33.01;26.90;99503.28;5113676;28;20374;-76
2021/08/10 08:59:18;;;;;;;25.25;7.03;;;;;;;33.14;26.05;99500.97;5108003;28;20024;-77
2021/08/10 09:01:44;;;;;;;12.82;7.10;;;;;;;33.29;26.31;99488.63;5122626;27;20035;-77
2021/08/10 09:04:09;;;;;;;13.65;7.03;;;;;;;33.24;27.41;99495.91;5112643;28;20089;-79
2021/08/10 09:06:35;;;;;;;14.60;5.75;;;;;;;33.42;26.06;99492.06;5112226;28;20428;-76
2021/08/10 09:09:24;;;;;;;20.83;6.80;;;;;;;33.65;25.63;99489.69;5107122;28;20039;-72
2021/08/10 09:11:52;;;;;;;19.00;8.23;;;;;;;33.63;26.56;99486.47;5112053;28;20565;-73
2021/08/10 09:14:18;;;;;;;18.73;7.32;;;;;;;33.67;25.84;99492.09;5112915;27;20057;-76
2021/08/10 09:17:07;;;;;;;16.45;6.80;;;;;;;33.81;25.55;99478.94;5112265;27;20036;-76
2021/08/10 09:19:44;;;;;;;12.85;5.53;;;;;;;33.95;24.03;99477.34;5111624;28;20032;-72
2021/08/10 09:22:16;;;;;;;11.27;6.55;;;;;;;33.90;25.59;99478.81;5113088;28;20036;-75
2021/08/10 09:24:49;;;;;;;13.85;6.72;;;;;;;33.95;24.79;99481.06;5117362;27;20027;-75
2021/08/10 09:27:38;;;;;;;13.63;7.10;;;;;;;34.09;23.50;99475.78;5116373;27;20075;-72
2021/08/10 09:30:05;;;;;;;10.10;6.18;;;;;;;34.20;23.24;99472.28;5123205;27;20027;-76
2021/08/10 09:32:31;;;;;;;9.80;7.05;;;;;;;34.25;22.32;99469.47;5115784;27;20400;-75
2021/08/10 09:35:17;;;;;;;14.05;6.75;;;;;;;34.19;22.17;99467.78;5111560;28;20020;-74
2021/08/10 09:38:04;;;;;;;9.70;6.57;;;;;;;34.15;23.21;99465.88;5143865;27;20055;-73
2021/08/10 09:40:43;;;;;;;16.65;6.25;;;;;;;34.39;23.94;99464.97;5112868;28;20471;-74
2021/08/10 09:43:25;;;;;;;10.07;7.20;;;;;;;34.39;23.56;99464.16;5105650;28;20031;-75
2021/08/10 09:46:14;;;;;;;9.55;6.53;;;;;;;34.35;23.05;99454.88;5103414;28;20031;-74
2021/08/10 09:49:01;;;;;;;13.73;6.68;;;;;;;34.47;23.89;99452.97;5111982;28;20031;-75
2021/08/10 09:51:28;;;;;;;9.57;5.72;;;;;;;34.52;23.25;99443.56;5112882;28;20039;-76
2021/08/10 09:54:04;;;;;;;10.10;6.35;;;;;;;34.72;22.12;99437.81;5108575;28;20039;-78
2021/08/10 09:59:24;;;;;;;10.30;5.80;;;;;;;34.84;22.54;99430.06;5112469;28;20081;-78
2021/08/10 10:01:58;;;;;;;8.80;6.05;;;;;;;34.99;21.47;99430.00;5110787;28;20092;-77
2021/08/10 10:04:31;;;;;;;7.82;5.43;;;;;;;35.06;21.82;99430.94;5109677;28;20031;-76
2021/08/10 10:07:10;;;;;;;19.27;6.00;;;;;;;35.27;21.26;99426.69;5112263;28;20065;-77
2021/08/10 10:09:36;;;;;;;;;;;;;;;35.57;21.03;99424.97;5112986;28;20048;-77
2021/08/10 10:12:04;;;;;;;8.02;5.07;;;;;;;35.51;20.97;99419.84;5138950;27;19994;-75
2021/08/10 10:14:29;;;;;;;8.77;5.38;;;;;;;35.67;21.05;99426.41;5112280;28;20028;-76
2021/08/10 10:16:57;;;;;;;8.20;5.65;;;;;;;35.66;21.52;99419.78;5098195;28;20039;-75
2021/08/10 10:19:22;;;;;;;10.35;5.20;;;;;;;35.75;20.35;99423.84;5100647;28;20027;-75
2021/08/10 10:21:54;;;;;;;9.98;5.22;;;;;;;35.69;20.95;99421.66;5107095;28;20443;-76
2021/08/10 10:24:21;;;;;;;10.65;5.78;;;;;;;35.70;20.88;99423.25;5112007;28;20106;-74
2021/08/10 10:26:57;;;;;;;14.98;5.65;;;;;;;35.84;20.70;99414.97;5144824;27;20055;-73
2021/08/10 10:29:24;;;;;;;9.85;5.90;;;;;;;35.68;20.55;99408.44;5110921;28;20039;-72
2021/08/10 10:31:50;;;;;;;7.95;5.45;;;;;;;35.77;21.10;99410.38;5111734;28;20115;-77
2021/08/10 10:34:17;;;;;;;10.35;6.47;;;;;;;36.12;20.62;99402.81;5105445;28;20032;-76
2021/08/10 10:36:44;;;;;;;9.43;5.50;;;;;;;36.08;19.96;99396.41;5111113;28;20116;-76
2021/08/10 10:39:13;;;;;;;8.68;5.60;;;;;;;36.02;20.62;99383.91;5111367;28;20504;-76
2021/08/10 10:41:40;;;;;;;9.57;5.53;;;;;;;36.25;21.06;99384.91;5111636;28;20036;-76
2021/08/10 10:44:10;;;;;;;7.47;5.50;;;;;;;35.96;20.50;99383.84;5111229;28;20505;-76
2021/08/10 10:46:38;;;;;;;13.25;5.47;;;;;;;36.11;20.84;99377.94;5110503;28;20077;-76
2021/08/10 10:49:08;;;;;;;9.25;4.78;;;;;;;36.24;20.57;99375.38;5110278;28;20038;-77
2021/08/10 10:51:39;;;;;;;9.52;4.20;;;;;;;36.33;19.95;99371.47;5134406;27;20027;-76
2021/08/10 10:54:25;;;;;;;8.00;5.03;;;;;;;36.36;19.68;99366.75;5127007;27;20055;-76
2021/08/10 10:56:56;;;;;;;7.07;4.32;;;;;;;36.35;19.27;99365.94;5114520;27;20527;-76
2021/08/10 10:59:42;;;;;;;6.55;4.30;;;;;;;36.47;19.34;99354.34;5110875;28;20035;-77
2021/08/10 11:02:18;;;;;;;7.20;4.75;;;;;;;36.52;19.33;99353.63;5109744;28;20561;-76
2021/08/10 11:05:06;;;;;;;6.53;4.93;;;;;;;36.69;19.20;99350.84;5111011;28;20035;-76
2021/08/10 11:07:35;;;;;;;5.60;4.05;;;;;;;36.83;18.72;99348.25;5109957;28;20039;-76
2021/08/10 11:10:01;;;;;;;7.68;5.13;;;;;;;36.63;18.60;99350.81;5107472;28;20054;-77
2021/08/10 11:12:33;;;;;;;10.80;4.88;;;;;;;36.80;18.18;99336.31;5109421;28;20081;-77
2021/08/10 11:14:59;;;;;;;7.28;3.70;;;;;;;37.04;17.18;99332.19;5144280;27;20019;-76
2021/08/10 11:17:25;;;;;;;4.72;3.50;;;;;;;37.07;15.76;99331.16;5110682;28;20038;-76
2021/08/10 11:19:51;;;;;;;7.60;4.38;;;;;;;36.91;17.02;99332.66;5110924;28;20027;-76
2021/08/10 11:22:17;;;;;;;5.78;4.20;;;;;;;36.93;17.21;99327.09;5110823;28;20023;-77
2021/08/10 11:25:02;;;;;;;16.40;5.18;;;;;;;36.99;17.40;99324.19;5108590;28;20027;-76
2021/08/10 11:27:43;;;;;;;6.93;4.53;;;;;;;37.11;17.18;99318.44;5109093;28;20110;-76
2021/08/10 11:30:21;;;;;;;5.97;4.28;;;;;;;37.17;17.01;99313.44;5143703;27;20043;-77
2021/08/10 11:32:48;;;;;;;8.55;4.32;;;;;;;37.36;16.57;99310.84;5108415;28;20093;-76
2021/08/10 11:35:34;;;;;;;5.28;3.90;;;;;;;37.54;16.19;99309.56;5107555;28;20382;-76